Time;durP1;ratioP1;P1;durP2;ratioP2;P2;SDS_P1;SDS_P2;PMS_P1;PMS_P2;Temp;Humidity;BMP_temperature;BMP_pressure;BME280_temperature;BME280_humidity;BME280_pressure;Samples;Min_cycle;Max_cycle;Signal;HPM_P1;HPM_P2
2023/10/25 00:00:12;;;;;;;2.83;2.72;;;;;;;;;;6282626;28;20323;-71
2023/10/25 00:03:17;;;;;;;3.03;2.93;;;;;;;;;;6282380;28;20322;-73
2023/10/25 00:06:21;;;;;;;2.90;2.80;;;;;;;;;;6282073;28;20314;-73
2023/10/25 00:09:25;;;;;;;2.80;2.70;;;;;;;;;;6280253;28;20292;-71
2023/10/25 00:12:29;;;;;;;2.50;2.50;;;;;;;;;;6280572;28;20302;-71
2023/10/25 00:15:33;;;;;;;3.00;2.90;;;;;;;;;;6281842;28;20317;-72
2023/10/25 00:18:38;;;;;;;4.63;2.80;;;;;;;;;;6282244;28;20618;-73
2023/10/25 00:21:42;;;;;;;2.50;2.40;;;;;;;;;;6282333;28;20322;-72
2023/10/25 00:24:46;;;;;;;2.63;2.63;;;;;;;;;;6282351;28;20227;-72
2023/10/25 00:27:50;;;;;;;2.50;2.30;;;;;;;;;;6283059;28;20286;-72
2023/10/25 00:30:54;;;;;;;2.60;2.50;;;;;;;;;;6280974;28;20318;-73
2023/10/25 00:33:59;;;;;;;2.67;2.57;;;;;;;;;;6281927;28;20603;-72
2023/10/25 00:37:04;;;;;;;2.65;2.45;;;;;;;;;;6282217;28;20287;-72
2023/10/25 00:40:09;;;;;;;2.70;2.60;;;;;;;;;;6281492;28;20543;-72
2023/10/25 00:43:16;;;;;;;2.63;2.60;;;;;;;;;;6281114;28;20290;-72
2023/10/25 00:46:22;;;;;;;2.50;2.50;;;;;;;;;;6279602;28;20294;-73
2023/10/25 00:49:28;;;;;;;2.55;2.45;;;;;;;;;;6281265;28;20287;-72
2023/10/25 00:52:32;;;;;;;2.60;2.50;;;;;;;;;;6281789;28;20306;-72
2023/10/25 00:55:37;;;;;;;2.67;2.58;;;;;;;;;;6280934;28;20306;-71
2023/10/25 00:58:41;;;;;;;3.00;2.77;;;;;;;;;;6279388;28;20583;-74
2023/10/25 01:01:45;;;;;;;2.50;2.50;;;;;;;;;;6280705;28;20307;-72
2023/10/25 01:04:51;;;;;;;2.65;2.53;;;;;;;;;;6280850;28;20300;-72
2023/10/25 01:07:55;;;;;;;2.58;2.42;;;;;;;;;;6281456;28;20374;-71
2023/10/25 01:10:58;;;;;;;2.70;2.60;;;;;;;;;;6278762;28;20291;-72
2023/10/25 01:14:02;;;;;;;2.58;2.47;;;;;;;;;;6279199;28;20293;-73
2023/10/25 01:17:06;;;;;;;2.40;2.30;;;;;;;;;;6281161;28;20291;-72
2023/10/25 01:20:12;;;;;;;2.50;2.50;;;;;;;;;;6280502;28;20612;-71
2023/10/25 01:23:17;;;;;;;2.60;2.50;;;;;;;;;;6280747;28;20295;-73
2023/10/25 01:26:21;;;;;;;2.92;2.67;;;;;;;;;;6252717;28;20287;-73
2023/10/25 01:29:26;;;;;;;2.90;2.80;;;;;;;;;;6280420;28;20307;-72
2023/10/25 01:32:30;;;;;;;2.78;2.67;;;;;;;;;;6267128;28;20295;-72
2023/10/25 01:35:34;;;;;;;3.22;2.65;;;;;;;;;;6254166;28;20299;-72
2023/10/25 01:38:39;;;;;;;3.07;2.80;;;;;;;;;;6255772;28;20304;-71
2023/10/25 01:41:44;;;;;;;2.90;2.80;;;;;;;;;;6255053;28;20320;-72
2023/10/25 01:44:47;;;;;;;3.65;3.10;;;;;;;;;;6254567;28;20312;-72
2023/10/25 01:47:51;;;;;;;2.73;2.63;;;;;;;;;;6253768;28;20304;-72
2023/10/25 01:50:55;;;;;;;4.03;2.87;;;;;;;;;;6253617;28;20295;-73
2023/10/25 01:54:01;;;;;;;2.83;2.70;;;;;;;;;;6253245;28;20323;-72
2023/10/25 01:57:05;;;;;;;4.00;2.90;;;;;;;;;;6253513;28;20295;-72
2023/10/25 02:00:12;;;;;;;2.90;2.80;;;;;;;;;;6254044;28;20327;-72
2023/10/25 02:03:16;;;;;;;3.03;2.83;;;;;;;;;;6255256;28;20307;-72
2023/10/25 02:06:21;;;;;;;2.90;2.80;;;;;;;;;;6251856;28;20236;-72
2023/10/25 02:09:26;;;;;;;3.17;3.05;;;;;;;;;;6254213;28;20299;-73
2023/10/25 02:12:30;;;;;;;2.88;2.70;;;;;;;;;;6273260;28;20302;-72
2023/10/25 02:15:34;;;;;;;2.80;2.70;;;;;;;;;;6277517;28;20295;-71
2023/10/25 02:18:38;;;;;;;3.25;3.15;;;;;;;;;;6278469;28;20294;-72
2023/10/25 02:21:42;;;;;;;3.33;2.90;;;;;;;;;;6279032;28;20311;-71
2023/10/25 02:24:53;;;;;;;3.00;2.80;;;;;;;;;;6278015;28;20241;-73
2023/10/25 02:27:57;;;;;;;2.60;2.50;;;;;;;;;;6279978;28;20466;-71
2023/10/25 02:31:01;;;;;;;3.00;3.00;;;;;;;;;;6279582;28;20286;-71
2023/10/25 02:34:06;;;;;;;3.03;2.92;;;;;;;;;;6279745;28;20294;-73
2023/10/25 02:37:10;;;;;;;3.50;3.30;;;;;;;;;;6278513;28;20302;-72
2023/10/25 02:40:15;;;;;;;3.17;3.05;;;;;;;;;;6279061;28;20299;-73
2023/10/25 02:43:19;;;;;;;3.27;3.00;;;;;;;;;;6279791;28;20345;-72
2023/10/25 02:46:23;;;;;;;3.10;2.93;;;;;;;;;;6274628;28;20241;-71
2023/10/25 02:49:27;;;;;;;3.00;2.80;;;;;;;;;;6264264;28;20558;-72
2023/10/25 02:52:31;;;;;;;3.23;3.03;;;;;;;;;;6279351;28;20298;-71
2023/10/25 02:55:37;;;;;;;3.10;3.00;;;;;;;;;;6293676;28;20251;-72
2023/10/25 02:58:41;;;;;;;3.30;3.20;;;;;;;;;;6277592;28;20295;-73
2023/10/25 03:01:45;;;;;;;2.95;2.85;;;;;;;;;;6271864;28;20290;-73
2023/10/25 03:04:49;;;;;;;3.60;3.30;;;;;;;;;;6266502;28;20258;-73
2023/10/25 03:07:53;;;;;;;3.20;3.00;;;;;;;;;;6262405;28;20291;-73
2023/10/25 03:10:58;;;;;;;3.30;3.10;;;;;;;;;;6252981;28;20299;-72
2023/10/25 03:14:02;;;;;;;3.10;3.00;;;;;;;;;;6254432;28;20320;-72
2023/10/25 03:17:06;;;;;;;2.95;2.85;;;;;;;;;;6253013;28;20291;-72
2023/10/25 03:20:11;;;;;;;3.37;3.27;;;;;;;;;;6271440;28;20364;-73
2023/10/25 03:23:16;;;;;;;3.25;3.08;;;;;;;;;;6275389;28;20298;-72
2023/10/25 03:26:21;;;;;;;3.40;3.30;;;;;;;;;;6278788;28;20315;-72
2023/10/25 03:29:25;;;;;;;3.35;3.17;;;;;;;;;;6278937;28;20298;-72
2023/10/25 03:32:29;;;;;;;3.40;3.30;;;;;;;;;;6278016;28;20607;-72
2023/10/25 03:35:33;;;;;;;3.25;3.05;;;;;;;;;;6277221;28;20571;-72
2023/10/25 03:38:36;;;;;;;3.80;3.53;;;;;;;;;;6278158;28;20476;-73
2023/10/25 03:41:42;;;;;;;3.75;3.55;;;;;;;;;;6280453;28;20418;-72
2023/10/25 03:44:46;;;;;;;3.58;3.47;;;;;;;;;;6279490;28;20310;-72
2023/10/25 03:47:50;;;;;;;4.30;4.03;;;;;;;;;;6277626;28;20295;-71
2023/10/25 03:50:54;;;;;;;4.20;3.97;;;;;;;;;;6278399;28;20398;-71
2023/10/25 03:53:58;;;;;;;4.30;3.90;;;;;;;;;;6276482;28;20299;-73
2023/10/25 03:57:03;;;;;;;4.10;3.90;;;;;;;;;;6270649;28;20303;-71
2023/10/25 04:00:09;;;;;;;4.68;4.28;;;;;;;;;;6252729;28;20304;-72
2023/10/25 04:03:16;;;;;;;4.20;4.00;;;;;;;;;;6251712;28;20316;-73
2023/10/25 04:06:21;;;;;;;4.10;3.90;;;;;;;;;;6256422;28;20600;-73
2023/10/25 04:09:24;;;;;;;4.47;4.10;;;;;;;;;;6257753;28;20331;-73
2023/10/25 04:12:30;;;;;;;3.97;3.78;;;;;;;;;;6256382;28;20302;-73
2023/10/25 04:15:35;;;;;;;5.10;4.55;;;;;;;;;;6257062;28;20299;-72
2023/10/25 04:18:39;;;;;;;4.95;4.43;;;;;;;;;;6257206;28;20303;-73
2023/10/25 04:21:43;;;;;;;4.70;4.30;;;;;;;;;;6257498;28;20299;-72
2023/10/25 04:24:47;;;;;;;4.50;4.10;;;;;;;;;;6257062;28;20311;-72
2023/10/25 04:27:52;;;;;;;4.88;4.55;;;;;;;;;;6256603;28;20326;-73
2023/10/25 04:30:56;;;;;;;6.43;4.97;;;;;;;;;;6257479;28;20404;-72
2023/10/25 04:34:00;;;;;;;5.05;4.70;;;;;;;;;;6280783;28;20291;-73
2023/10/25 04:37:05;;;;;;;4.75;4.45;;;;;;;;;;6281653;28;20343;-72
2023/10/25 04:40:10;;;;;;;4.90;4.40;;;;;;;;;;6280633;28;20302;-72
2023/10/25 04:43:15;;;;;;;4.97;4.68;;;;;;;;;;6281174;28;20326;-73
2023/10/25 04:46:19;;;;;;;6.10;4.60;;;;;;;;;;6279949;28;20246;-73
2023/10/25 04:49:24;;;;;;;5.63;4.53;;;;;;;;;;6281312;28;20298;-73
2023/10/25 04:52:28;;;;;;;5.10;4.70;;;;;;;;;;6281223;28;20367;-74
2023/10/25 04:55:34;;;;;;;5.13;4.70;;;;;;;;;;6272623;28;20294;-71
2023/10/25 04:58:39;;;;;;;5.37;4.97;;;;;;;;;;6281252;28;20306;-71
2023/10/25 05:01:43;;;;;;;7.23;5.20;;;;;;;;;;6281720;28;20474;-71
2023/10/25 05:04:47;;;;;;;5.30;4.90;;;;;;;;;;6281287;28;20307;-72
2023/10/25 05:07:52;;;;;;;4.87;4.53;;;;;;;;;;6280877;28;20544;-71
2023/10/25 05:10:56;;;;;;;5.80;5.30;;;;;;;;;;6279570;28;20573;-72
2023/10/25 05:14:02;;;;;;;5.17;4.67;;;;;;;;;;6281079;28;20299;-72
2023/10/25 05:17:09;;;;;;;5.53;5.07;;;;;;;;;;6280308;28;20294;-73
2023/10/25 05:20:14;;;;;;;5.07;4.67;;;;;;;;;;6280597;28;20303;-72
2023/10/25 05:23:18;;;;;;;5.82;5.30;;;;;;;;;;6280571;28;20299;-72
2023/10/25 05:26:23;;;;;;;5.73;5.23;;;;;;;;;;6280755;28;20306;-71
2023/10/25 05:29:29;;;;;;;6.10;5.50;;;;;;;;;;6280025;28;20302;-72
2023/10/25 05:32:33;;;;;;;5.30;4.90;;;;;;;;;;6280412;28;20363;-71
2023/10/25 05:35:38;;;;;;;5.38;4.75;;;;;;;;;;6281468;28;20386;-71
2023/10/25 05:38:42;;;;;;;5.63;5.17;;;;;;;;;;6280989;28;20290;-72
2023/10/25 05:41:47;;;;;;;5.32;4.90;;;;;;;;;;6280450;28;20296;-72
2023/10/25 05:44:54;;;;;;;7.30;5.30;;;;;;;;;;6279952;28;20299;-73
2023/10/25 05:47:58;;;;;;;5.63;5.13;;;;;;;;;;6279553;28;20318;-73
2023/10/25 05:51:04;;;;;;;5.10;4.60;;;;;;;;;;6269171;28;20291;-71
2023/10/25 05:54:09;;;;;;;6.05;5.38;;;;;;;;;;6280280;28;20595;-71
2023/10/25 05:57:14;;;;;;;8.17;5.10;;;;;;;;;;6271753;28;20287;-70
2023/10/25 06:00:20;;;;;;;5.53;5.03;;;;;;;;;;6279971;28;20314;-70
2023/10/25 06:03:25;;;;;;;5.90;5.32;;;;;;;;;;6280757;28;20294;-72
2023/10/25 06:06:37;;;;;;;5.53;5.07;;;;;;;;;;6280161;28;20299;-71
2023/10/25 06:09:41;;;;;;;5.53;5.03;;;;;;;;;;6278382;28;20301;-78
2023/10/25 06:12:46;;;;;;;6.43;5.67;;;;;;;;;;6279399;28;20607;-71
2023/10/25 06:15:51;;;;;;;7.68;5.25;;;;;;;;;;6279585;28;20298;-72
2023/10/25 06:18:55;;;;;;;7.10;6.13;;;;;;;;;;6278845;28;20299;-73
2023/10/25 06:22:00;;;;;;;9.27;5.60;;;;;;;;;;6279847;28;20299;-73
2023/10/25 06:25:05;;;;;;;6.10;5.50;;;;;;;;;;6279114;28;20295;-72
2023/10/25 06:28:09;;;;;;;5.93;5.33;;;;;;;;;;6277722;28;20323;-72
2023/10/25 06:31:15;;;;;;;6.25;5.75;;;;;;;;;;6279437;28;20564;-72
2023/10/25 06:34:19;;;;;;;8.60;5.75;;;;;;;;;;6278853;28;20306;-71
2023/10/25 06:37:24;;;;;;;6.70;5.38;;;;;;;;;;6279164;28;20310;-72
2023/10/25 06:40:28;;;;;;;5.60;5.10;;;;;;;;;;6278884;28;20295;-72
2023/10/25 06:43:33;;;;;;;6.40;5.78;;;;;;;;;;6278843;28;20640;-72
2023/10/25 06:46:39;;;;;;;7.63;5.67;;;;;;;;;;6277811;28;20303;-72
2023/10/25 06:49:43;;;;;;;7.30;6.00;;;;;;;;;;6278751;28;20307;-73
2023/10/25 06:52:48;;;;;;;7.87;5.20;;;;;;;;;;6278828;28;20286;-72
2023/10/25 06:55:52;;;;;;;5.78;5.28;;;;;;;;;;6279316;28;20378;-73
2023/10/25 06:58:57;;;;;;;5.53;5.05;;;;;;;;;;6278901;28;20491;-73
2023/10/25 07:02:24;;;;;;;6.47;5.60;;;;;;;;;;6279491;28;20287;-72
2023/10/25 07:05:29;;;;;;;5.60;5.10;;;;;;;;;;6278193;28;20838;-72
2023/10/25 07:08:34;;;;;;;5.78;5.28;;;;;;;;;;6277803;28;20294;-72
2023/10/25 07:11:38;;;;;;;5.47;4.97;;;;;;;;;;6277285;28;20568;-73
2023/10/25 07:14:43;;;;;;;5.13;4.73;;;;;;;;;;6267729;28;20297;-73
2023/10/25 07:17:49;;;;;;;4.88;4.45;;;;;;;;;;6277466;28;20299;-72
2023/10/25 07:20:54;;;;;;;5.32;4.90;;;;;;;;;;6278735;28;20442;-73
2023/10/25 07:23:58;;;;;;;6.35;5.85;;;;;;;;;;6278177;28;20295;-72
2023/10/25 07:27:02;;;;;;;5.40;5.00;;;;;;;;;;6278619;28;20290;-71
2023/10/25 07:30:06;;;;;;;5.30;4.90;;;;;;;;;;6277940;28;20294;-72
2023/10/25 07:33:13;;;;;;;5.23;4.83;;;;;;;;;;6278285;28;20294;-72
2023/10/25 07:36:17;;;;;;;5.13;4.63;;;;;;;;;;6278573;28;20286;-72
2023/10/25 07:39:20;;;;;;;5.80;4.70;;;;;;;;;;6274962;28;20425;-72
2023/10/25 07:42:25;;;;;;;4.47;4.17;;;;;;;;;;6283313;28;20298;-72
2023/10/25 07:45:28;;;;;;;5.22;4.50;;;;;;;;;;6283204;28;20465;-73
2023/10/25 07:48:34;;;;;;;5.97;4.30;;;;;;;;;;6282964;28;20310;-72
2023/10/25 07:51:38;;;;;;;5.23;4.73;;;;;;;;;;6284068;28;20664;-72
2023/10/25 07:54:42;;;;;;;5.43;4.80;;;;;;;;;;6283125;28;20315;-71
2023/10/25 07:57:46;;;;;;;4.90;4.60;;;;;;;;;;6283324;28;20290;-72
2023/10/25 08:00:53;;;;;;;5.47;4.67;;;;;;;;;;6283025;28;20626;-72
2023/10/25 08:03:58;;;;;;;5.50;5.00;;;;;;;;;;6282890;28;20326;-72
2023/10/25 08:07:02;;;;;;;5.10;4.60;;;;;;;;;;6282915;28;20279;-70
2023/10/25 08:10:07;;;;;;;4.50;4.10;;;;;;;;;;6280085;28;20246;-72
2023/10/25 08:13:11;;;;;;;5.10;4.70;;;;;;;;;;6282342;28;20334;-72
2023/10/25 08:16:15;;;;;;;5.15;4.75;;;;;;;;;;6282498;28;20294;-72
2023/10/25 08:19:21;;;;;;;5.13;4.80;;;;;;;;;;6282153;28;20402;-71
2023/10/25 08:22:24;;;;;;;4.82;4.43;;;;;;;;;;6282348;28;20299;-72
2023/10/25 08:25:28;;;;;;;5.82;4.80;;;;;;;;;;6282442;28;20306;-72
2023/10/25 08:28:33;;;;;;;5.38;4.82;;;;;;;;;;6271779;28;20307;-73
2023/10/25 08:31:36;;;;;;;5.10;4.65;;;;;;;;;;6281841;28;20386;-72
2023/10/25 08:34:46;;;;;;;5.20;4.60;;;;;;;;;;6282391;28;20311;-73
2023/10/25 08:37:50;;;;;;;6.10;4.60;;;;;;;;;;6282041;28;20470;-72
2023/10/25 08:41:01;;;;;;;5.38;4.88;;;;;;;;;;6281849;28;20279;-72
2023/10/25 08:44:06;;;;;;;5.20;4.75;;;;;;;;;;6281682;28;20310;-72
2023/10/25 08:47:11;;;;;;;5.38;4.60;;;;;;;;;;6282252;28;20306;-73
2023/10/25 08:50:19;;;;;;;4.85;4.43;;;;;;;;;;6281542;28;20310;-76
2023/10/25 08:53:24;;;;;;;4.78;4.40;;;;;;;;;;6274448;28;20303;-74
2023/10/25 08:56:28;;;;;;;3.88;3.63;;;;;;;;;;6256592;28;20383;-72
2023/10/25 08:59:42;;;;;;;3.70;3.13;;;;;;;;;;6256334;28;20299;-73
2023/10/25 09:02:47;;;;;;;2.80;2.42;;;;;;;;;;6256448;28;20367;-73
2023/10/25 09:06:04;;;;;;;2.95;2.30;;;;;;;;;;6256726;28;20299;-72
2023/10/25 09:09:10;;;;;;;5.80;2.22;;;;;;;;;;6256288;28;20506;-74
2023/10/25 09:12:20;;;;;;;2.55;1.77;;;;;;;;;;6277836;28;20295;-72
2023/10/25 09:15:31;;;;;;;2.30;1.95;;;;;;;;;;6280483;28;20303;-73
2023/10/25 09:18:36;;;;;;;3.10;1.92;;;;;;;;;;6280720;28;20322;-74
2023/10/25 09:21:41;;;;;;;2.10;2.00;;;;;;;;;;6281260;28;20295;-73
2023/10/25 09:24:48;;;;;;;1.42;1.42;;;;;;;;;;6280807;28;20287;-74
2023/10/25 09:27:52;;;;;;;1.80;1.70;;;;;;;;;;6280470;28;20282;-73
2023/10/25 09:30:57;;;;;;;3.38;1.65;;;;;;;;;;6279151;28;20504;-72
2023/10/25 09:34:08;;;;;;;3.22;2.03;;;;;;;;;;6280420;28;20291;-72
2023/10/25 09:37:13;;;;;;;2.65;1.90;;;;;;;;;;6280747;28;20379;-74
2023/10/25 09:40:17;;;;;;;2.55;2.35;;;;;;;;;;6280206;28;20306;-72
2023/10/25 09:43:24;;;;;;;2.28;2.17;;;;;;;;;;6294818;28;20294;-72
2023/10/25 09:46:30;;;;;;;1.85;1.75;;;;;;;;;;6279277;28;20583;-72
2023/10/25 09:49:35;;;;;;;2.22;1.92;;;;;;;;;;6280810;28;20294;-72
2023/10/25 09:52:40;;;;;;;2.28;2.08;;;;;;;;;;6280184;28;20302;-74
2023/10/25 09:55:54;;;;;;;1.85;1.80;;;;;;;;;;6280762;28;20287;-73
2023/10/25 09:58:59;;;;;;;2.13;1.85;;;;;;;;;;6279880;28;20291;-73
2023/10/25 10:02:05;;;;;;;3.40;2.30;;;;;;;;;;6269709;28;20378;-73
2023/10/25 10:05:13;;;;;;;2.08;1.83;;;;;;;;;;6267533;28;20441;-72
2023/10/25 10:08:21;;;;;;;1.80;1.67;;;;;;;;;;6280167;28;20575;-73
2023/10/25 10:11:28;;;;;;;2.17;1.92;;;;;;;;;;6278040;28;20306;-71
2023/10/25 10:14:33;;;;;;;2.10;1.95;;;;;;;;;;6278835;28;20323;-73
2023/10/25 10:17:42;;;;;;;1.83;1.80;;;;;;;;;;6279451;28;20294;-72
2023/10/25 10:20:59;;;;;;;3.70;2.00;;;;;;;;;;6295025;28;20578;-73
2023/10/25 10:24:05;;;;;;;2.42;2.00;;;;;;;;;;6284544;28;20501;-72
2023/10/25 10:27:11;;;;;;;1.92;1.70;;;;;;;;;;6279655;28;20414;-72
2023/10/25 10:30:34;;;;;;;2.63;2.00;;;;;;;;;;6279168;28;20303;-72
2023/10/25 10:33:45;;;;;;;1.88;1.88;;;;;;;;;;6279047;28;20347;-71
2023/10/25 10:37:06;;;;;;;1.90;1.80;;;;;;;;;;6280054;28;20299;-74
2023/10/25 10:40:15;;;;;;;5.68;2.08;;;;;;;;;;6279716;28;20306;-72
2023/10/25 10:43:20;;;;;;;2.17;2.08;;;;;;;;;;6278850;28;20319;-75
2023/10/25 10:46:30;;;;;;;2.17;2.03;;;;;;;;;;6279490;28;20303;-72
2023/10/25 10:49:39;;;;;;;3.50;2.17;;;;;;;;;;6293885;28;20419;-70
2023/10/25 10:52:44;;;;;;;3.70;2.72;;;;;;;;;;6278930;28;20294;-71
2023/10/25 10:55:49;;;;;;;4.68;2.47;;;;;;;;;;6279576;28;20303;-72
2023/10/25 10:58:53;;;;;;;2.85;2.50;;;;;;;;;;6279259;28;20290;-72
2023/10/25 11:01:57;;;;;;;4.40;2.60;;;;;;;;;;6279698;28;20288;-70
2023/10/25 11:05:01;;;;;;;3.13;2.67;;;;;;;;;;6278853;28;20323;-72
2023/10/25 11:08:10;;;;;;;2.90;2.80;;;;;;;;;;6278624;28;20298;-72
2023/10/25 11:11:15;;;;;;;2.88;2.63;;;;;;;;;;6277045;28;20310;-72
2023/10/25 11:14:20;;;;;;;6.50;3.35;;;;;;;;;;6279559;28;20290;-72
2023/10/25 11:17:24;;;;;;;3.45;3.22;;;;;;;;;;6283936;28;20287;-72
2023/10/25 11:20:28;;;;;;;3.88;3.58;;;;;;;;;;6283467;28;20287;-71
2023/10/25 11:23:32;;;;;;;3.28;3.17;;;;;;;;;;6283061;28;20298;-72
2023/10/25 11:26:40;;;;;;;3.97;3.65;;;;;;;;;;6283887;28;20294;-72
2023/10/25 11:29:45;;;;;;;4.35;3.28;;;;;;;;;;6281618;28;20302;-72
2023/10/25 11:32:50;;;;;;;5.90;4.13;;;;;;;;;;6283347;28;20996;-72
2023/10/25 11:35:56;;;;;;;4.30;3.65;;;;;;;;;;6283801;28;20291;-73
2023/10/25 11:39:06;;;;;;;3.90;3.60;;;;;;;;;;6283393;28;20306;-71
2023/10/25 11:42:12;;;;;;;3.75;3.47;;;;;;;;;;6283649;28;20328;-72
2023/10/25 11:45:19;;;;;;;6.05;3.92;;;;;;;;;;6283210;28;20456;-71
2023/10/25 11:48:22;;;;;;;7.90;3.50;;;;;;;;;;6282795;28;20310;-71
2023/10/25 11:51:27;;;;;;;4.47;3.25;;;;;;;;;;6272246;28;20326;-72
2023/10/25 11:54:32;;;;;;;3.55;3.03;;;;;;;;;;6282677;28;20303;-73
2023/10/25 11:57:37;;;;;;;3.30;3.05;;;;;;;;;;6282795;28;20311;-73
2023/10/25 12:00:41;;;;;;;2.75;2.45;;;;;;;;;;6283061;28;20548;-71
2023/10/25 12:03:45;;;;;;;3.22;2.60;;;;;;;;;;6282557;28;20299;-73
2023/10/25 12:06:49;;;;;;;3.85;2.65;;;;;;;;;;6272001;28;20322;-73
2023/10/25 12:09:54;;;;;;;2.80;2.60;;;;;;;;;;6278544;28;20303;-72
2023/10/25 12:12:59;;;;;;;2.65;2.45;;;;;;;;;;6282612;28;20298;-73
2023/10/25 12:16:03;;;;;;;2.63;2.42;;;;;;;;;;6281057;28;20381;-72
2023/10/25 12:19:07;;;;;;;3.67;2.25;;;;;;;;;;6282800;28;20586;-73
2023/10/25 12:22:13;;;;;;;4.97;2.00;;;;;;;;;;6283291;28;20291;-71
2023/10/25 12:25:17;;;;;;;4.13;1.83;;;;;;;;;;6282367;28;20295;-71
2023/10/25 12:28:23;;;;;;;2.30;2.13;;;;;;;;;;6282122;28;20319;-72
2023/10/25 12:31:26;;;;;;;2.22;2.03;;;;;;;;;;6282560;28;20302;-73
2023/10/25 12:34:30;;;;;;;2.65;2.33;;;;;;;;;;6282184;28;20295;-72
2023/10/25 12:37:34;;;;;;;2.58;2.10;;;;;;;;;;6282036;28;20295;-72
2023/10/25 12:40:38;;;;;;;1.95;1.50;;;;;;;;;;6281534;28;20319;-73
2023/10/25 12:43:43;;;;;;;1.90;1.80;;;;;;;;;;6281390;28;20421;-71
2023/10/25 12:46:47;;;;;;;4.88;1.77;;;;;;;;;;6281827;28;20469;-72
2023/10/25 12:49:52;;;;;;;2.20;1.80;;;;;;;;;;6281673;28;20620;-71
2023/10/25 12:52:56;;;;;;;2.50;1.65;;;;;;;;;;6281501;28;20299;-72
2023/10/25 12:56:00;;;;;;;9.05;1.85;;;;;;;;;;6282053;28;20290;-73
2023/10/25 12:59:05;;;;;;;1.88;1.77;;;;;;;;;;6281240;28;20493;-73
2023/10/25 13:02:09;;;;;;;3.33;1.58;;;;;;;;;;6281698;28;20299;-71
2023/10/25 13:05:13;;;;;;;1.83;1.60;;;;;;;;;;6278766;28;20287;-71
2023/10/25 13:08:17;;;;;;;1.95;1.70;;;;;;;;;;6280780;28;20295;-72
2023/10/25 13:11:21;;;;;;;2.30;1.98;;;;;;;;;;6279502;28;20580;-73
2023/10/25 13:14:26;;;;;;;2.10;1.90;;;;;;;;;;6280911;28;20553;-74
2023/10/25 13:17:30;;;;;;;2.53;1.65;;;;;;;;;;6280661;28;20287;-73
2023/10/25 13:20:34;;;;;;;2.05;1.95;;;;;;;;;;6280921;28;20576;-73
2023/10/25 13:23:38;;;;;;;4.38;1.67;;;;;;;;;;6281449;28;20302;-71
2023/10/25 13:26:42;;;;;;;4.50;1.50;;;;;;;;;;6281156;28;20294;-75
2023/10/25 13:29:48;;;;;;;2.08;1.60;;;;;;;;;;6280553;28;20291;-72
2023/10/25 13:32:52;;;;;;;2.25;1.80;;;;;;;;;;6267273;28;20236;-73
2023/10/25 13:35:57;;;;;;;3.58;1.70;;;;;;;;;;6281065;28;20295;-73
2023/10/25 13:39:01;;;;;;;1.77;1.52;;;;;;;;;;6280079;28;20432;-74
2023/10/25 13:42:08;;;;;;;1.75;1.67;;;;;;;;;;6280611;28;20474;-73
2023/10/25 13:45:13;;;;;;;1.90;1.80;;;;;;;;;;6280261;28;20303;-71
2023/10/25 13:48:17;;;;;;;1.52;1.52;;;;;;;;;;6278706;28;20290;-73
2023/10/25 13:51:21;;;;;;;2.47;2.05;;;;;;;;;;6280207;28;20295;-72
2023/10/25 13:54:25;;;;;;;8.50;2.10;;;;;;;;;;6279764;28;20478;-72
2023/10/25 13:57:29;;;;;;;1.85;1.75;;;;;;;;;;6280029;28;20506;-71
2023/10/25 14:00:36;;;;;;;1.60;1.60;;;;;;;;;;6279891;28;20291;-72
2023/10/25 14:03:41;;;;;;;3.25;1.95;;;;;;;;;;6279565;28;20287;-72
2023/10/25 14:06:45;;;;;;;4.53;1.73;;;;;;;;;;6280526;28;20295;-71
2023/10/25 14:09:49;;;;;;;3.03;2.10;;;;;;;;;;6277893;28;20295;-70
2023/10/25 14:12:54;;;;;;;2.17;2.08;;;;;;;;;;6279398;28;20291;-71
2023/10/25 14:15:59;;;;;;;6.03;2.00;;;;;;;;;;6280109;28;20307;-71
2023/10/25 14:19:05;;;;;;;3.95;2.45;;;;;;;;;;6281122;28;20611;-73
2023/10/25 14:22:09;;;;;;;1.90;1.90;;;;;;;;;;6279956;28;20390;-72
2023/10/25 14:25:12;;;;;;;2.83;2.20;;;;;;;;;;6279458;28;20303;-74
2023/10/25 14:28:16;;;;;;;2.28;2.17;;;;;;;;;;6277801;28;20361;-73
2023/10/25 14:31:22;;;;;;;4.18;2.00;;;;;;;;;;6279497;28;20302;-72
2023/10/25 14:34:26;;;;;;;1.50;1.50;;;;;;;;;;6279831;28;20331;-73
2023/10/25 14:37:30;;;;;;;3.60;1.95;;;;;;;;;;6279733;28;20394;-71
2023/10/25 14:40:38;;;;;;;2.45;1.70;;;;;;;;;;6278904;28;20551;-74
2023/10/25 14:43:43;;;;;;;3.53;1.70;;;;;;;;;;6279022;28;20310;-73
2023/10/25 14:46:49;;;;;;;1.60;1.60;;;;;;;;;;6279719;28;20279;-72
2023/10/25 14:49:53;;;;;;;1.75;1.45;;;;;;;;;;6278574;28;20291;-72
2023/10/25 14:52:57;;;;;;;2.20;1.48;;;;;;;;;;6278850;28;20302;-72
2023/10/25 14:56:01;;;;;;;3.85;1.85;;;;;;;;;;6279108;28;20307;-73
2023/10/25 14:59:06;;;;;;;1.67;1.60;;;;;;;;;;6278825;28;20294;-72
2023/10/25 15:02:11;;;;;;;1.38;1.38;;;;;;;;;;6279576;28;20314;-72
2023/10/25 15:05:17;;;;;;;2.08;1.33;;;;;;;;;;6279011;28;20567;-74
2023/10/25 15:08:20;;;;;;;1.60;1.50;;;;;;;;;;6278455;28;20287;-71
2023/10/25 15:11:25;;;;;;;1.52;1.50;;;;;;;;;;6277244;28;20299;-71
2023/10/25 15:14:29;;;;;;;2.55;1.73;;;;;;;;;;6278044;28;20607;-71
2023/10/25 15:17:45;;;;;;;1.77;1.67;;;;;;;;;;6278375;28;20530;-73
2023/10/25 15:20:50;;;;;;;2.53;1.50;;;;;;;;;;6270265;28;20307;-74
2023/10/25 15:23:54;;;;;;;5.38;1.90;;;;;;;;;;6278921;28;20363;-72
2023/10/25 15:26:58;;;;;;;2.80;1.67;;;;;;;;;;6278949;28;20326;-72
2023/10/25 15:30:03;;;;;;;3.60;1.90;;;;;;;;;;6278436;28;20303;-72
2023/10/25 15:33:08;;;;;;;1.73;1.50;;;;;;;;;;6277869;28;20307;-73
2023/10/25 15:36:12;;;;;;;2.15;1.65;;;;;;;;;;6278886;28;20303;-72
2023/10/25 15:39:16;;;;;;;3.90;2.22;;;;;;;;;;6278043;28;20286;-71
2023/10/25 15:42:20;;;;;;;2.92;1.83;;;;;;;;;;6276713;28;20295;-73
2023/10/25 15:45:24;;;;;;;1.77;1.77;;;;;;;;;;6277823;28;20468;-72
2023/10/25 15:48:30;;;;;;;1.55;1.55;;;;;;;;;;6278213;28;20302;-71
2023/10/25 15:51:35;;;;;;;3.55;1.70;;;;;;;;;;6278010;28;20306;-72
2023/10/25 15:54:40;;;;;;;3.70;1.80;;;;;;;;;;6277981;28;20310;-73
2023/10/25 15:57:44;;;;;;;1.75;1.65;;;;;;;;;;6266397;28;20303;-72
2023/10/25 16:00:48;;;;;;;3.35;1.50;;;;;;;;;;6255682;28;20367;-73
2023/10/25 16:03:53;;;;;;;2.25;2.15;;;;;;;;;;6257497;28;20537;-73
2023/10/25 16:06:57;;;;;;;1.70;1.60;;;;;;;;;;6258320;28;20291;-71
2023/10/25 16:10:01;;;;;;;2.60;1.75;;;;;;;;;;6259401;28;20617;-71
2023/10/25 16:13:05;;;;;;;1.60;1.60;;;;;;;;;;6297864;28;20298;-71
2023/10/25 16:16:10;;;;;;;1.90;1.80;;;;;;;;;;6282727;28;20282;-72
2023/10/25 16:19:15;;;;;;;2.28;1.70;;;;;;;;;;6282255;28;20294;-71
2023/10/25 16:22:19;;;;;;;1.52;1.52;;;;;;;;;;6264332;28;20307;-72
2023/10/25 16:25:23;;;;;;;1.63;1.55;;;;;;;;;;6255728;28;20623;-73
2023/10/25 16:28:27;;;;;;;1.83;1.73;;;;;;;;;;6255256;28;20318;-73
2023/10/25 16:31:31;;;;;;;2.80;1.63;;;;;;;;;;6276645;28;20370;-73
2023/10/25 16:34:36;;;;;;;1.52;1.52;;;;;;;;;;6286671;28;20232;-72
2023/10/25 16:37:41;;;;;;;1.75;1.65;;;;;;;;;;6281778;28;20303;-75
2023/10/25 16:40:45;;;;;;;3.53;1.90;;;;;;;;;;6282262;28;20322;-72
2023/10/25 16:43:48;;;;;;;1.73;1.67;;;;;;;;;;6281776;28;20582;-73
2023/10/25 16:46:52;;;;;;;1.95;1.60;;;;;;;;;;6282797;28;20291;-74
2023/10/25 16:49:58;;;;;;;2.22;2.03;;;;;;;;;;6282102;28;20307;-72
2023/10/25 16:53:01;;;;;;;4.07;2.03;;;;;;;;;;6282275;28;20466;-73
2023/10/25 16:56:06;;;;;;;21.33;4.38;;;;;;;;;;6282127;28;20600;-73
2023/10/25 16:59:10;;;;;;;4.93;2.60;;;;;;;;;;6281752;28;20287;-71
2023/10/25 17:02:14;;;;;;;2.80;2.00;;;;;;;;;;6282729;28;20306;-72
2023/10/25 17:05:20;;;;;;;2.05;2.00;;;;;;;;;;6273460;28;20295;-71
2023/10/25 17:08:24;;;;;;;2.70;2.25;;;;;;;;;;6281958;28;20311;-73
2023/10/25 17:11:28;;;;;;;2.03;1.60;;;;;;;;;;6280446;28;20295;-73
2023/10/25 17:14:32;;;;;;;2.58;1.65;;;;;;;;;;6281239;28;20319;-73
2023/10/25 17:17:36;;;;;;;2.40;1.92;;;;;;;;;;6282332;28;20489;-73
2023/10/25 17:20:44;;;;;;;2.35;2.17;;;;;;;;;;6280767;28;20587;-74
2023/10/25 17:23:48;;;;;;;1.80;1.75;;;;;;;;;;6281889;28;20405;-73
2023/10/25 17:26:53;;;;;;;4.15;1.70;;;;;;;;;;6282001;28;20314;-73
2023/10/25 17:29:57;;;;;;;2.13;1.60;;;;;;;;;;6281790;28;20299;-73
2023/10/25 17:33:01;;;;;;;2.28;1.77;;;;;;;;;;6267417;28;20468;-76
2023/10/25 17:36:08;;;;;;;2.00;2.00;;;;;;;;;;6257056;28;20311;-74
2023/10/25 17:39:12;;;;;;;1.95;1.85;;;;;;;;;;6256853;28;20307;-74
2023/10/25 17:42:16;;;;;;;2.28;2.17;;;;;;;;;;6256739;28;20299;-73
2023/10/25 17:45:23;;;;;;;1.42;1.40;;;;;;;;;;6255487;28;20315;-73
2023/10/25 17:48:27;;;;;;;2.30;1.65;;;;;;;;;;6256377;28;20287;-71
2023/10/25 17:51:32;;;;;;;1.80;1.70;;;;;;;;;;6254223;28;20294;-73
2023/10/25 17:54:36;;;;;;;2.88;1.90;;;;;;;;;;6263140;28;20299;-73
2023/10/25 17:57:40;;;;;;;2.40;1.77;;;;;;;;;;6255668;28;20297;-75
2023/10/25 18:00:46;;;;;;;1.67;1.60;;;;;;;;;;6253834;28;20643;-73
2023/10/25 18:03:50;;;;;;;2.33;2.10;;;;;;;;;;6263070;28;20283;-73
2023/10/25 18:06:55;;;;;;;2.60;1.90;;;;;;;;;;6256083;28;20295;-73
2023/10/25 18:10:06;;;;;;;4.78;2.15;;;;;;;;;;6258995;28;20287;-74
2023/10/25 18:13:10;;;;;;;2.05;1.58;;;;;;;;;;6280254;28;20303;-71
2023/10/25 18:16:14;;;;;;;1.90;1.80;;;;;;;;;;6280416;28;20298;-73
2023/10/25 18:19:20;;;;;;;1.83;1.80;;;;;;;;;;6280212;28;20292;-72
2023/10/25 18:22:26;;;;;;;2.58;1.60;;;;;;;;;;6280708;28;20313;-72
2023/10/25 18:25:30;;;;;;;2.00;1.70;;;;;;;;;;6268335;28;20307;-71
2023/10/25 18:28:34;;;;;;;1.80;1.70;;;;;;;;;;6278642;28;20303;-71